sensor_id;sensor_type;location;lat;lon;timestamp;temperature;humidity
45012;DHT22;63444;48.148;11.542;2022-11-18T00:01:16;9.70;99.90
45012;DHT22;63444;48.148;11.542;2022-11-18T00:03:42;9.80;99.90
45012;DHT22;63444;48.148;11.542;2022-11-18T00:06:11;9.70;99.90
45012;DHT22;63444;48.148;11.542;2022-11-18T00:08:37;9.70;99.90
45012;DHT22;63444;48.148;11.542;2022-11-18T00:11:26;9.70;99.90
45012;DHT22;63444;48.148;11.542;2022-11-18T00:14:19;9.60;99.90
45012;DHT22;63444;48.148;11.542;2022-11-18T00:16:46;9.60;99.90
45012;DHT22;63444;48.148;11.542;2022-11-18T00:19:14;9.60;99.90
45012;DHT22;63444;48.148;11.542;2022-11-18T00:21:40;9.50;99.90
45012;DHT22;63444;48.148;11.542;2022-11-18T00:24:06;9.50;99.90
45012;DHT22;63444;48.148;11.542;2022-11-18T00:26:31;9.50;99.90
45012;DHT22;63444;48.148;11.542;2022-11-18T00:28:57;9.50;99.90
45012;DHT22;63444;48.148;11.542;2022-11-18T00:31:23;9.50;99.90
45012;DHT22;63444;48.148;11.542;2022-11-18T00:33:48;9.50;99.90
45012;DHT22;63444;48.148;11.542;2022-11-18T00:36:14;9.50;99.90
45012;DHT22;63444;48.148;11.542;2022-11-18T00:38:39;9.50;99.90
45012;DHT22;63444;48.148;11.542;2022-11-18T00:41:10;9.50;99.90
45012;DHT22;63444;48.148;11.542;2022-11-18T00:43:36;9.50;99.90
45012;DHT22;63444;48.148;11.542;2022-11-18T00:46:04;9.40;99.90
45012;DHT22;63444;48.148;11.542;2022-11-18T00:48:31;9.40;99.90
45012;DHT22;63444;48.148;11.542;2022-11-18T00:51:05;9.40;99.90
45012;DHT22;63444;48.148;11.542;2022-11-18T00:53:31;9.40;99.90
45012;DHT22;63444;48.148;11.542;2022-11-18T00:55:56;9.40;99.90
45012;DHT22;63444;48.148;11.542;2022-11-18T00:58:22;9.40;99.90
45012;DHT22;63444;48.148;11.542;2022-11-18T01:00:50;9.40;99.90
45012;DHT22;63444;48.148;11.542;2022-11-18T01:03:19;9.40;99.90
45012;DHT22;63444;48.148;11.542;2022-11-18T01:05:44;9.30;99.90
45012;DHT22;63444;48.148;11.542;2022-11-18T01:08:11;9.30;99.90
45012;DHT22;63444;48.148;11.542;2022-11-18T01:10:38;9.30;99.90
45012;DHT22;63444;48.148;11.542;2022-11-18T01:13:05;9.30;99.90
45012;DHT22;63444;48.148;11.542;2022-11-18T01:15:56;9.30;99.90
45012;DHT22;63444;48.148;11.542;2022-11-18T01:18:24;9.20;99.90
45012;DHT22;63444;48.148;11.542;2022-11-18T01:20:51;9.20;99.90
45012;DHT22;63444;48.148;11.542;2022-11-18T01:23:17;9.20;99.90
45012;DHT22;63444;48.148;11.542;2022-11-18T01:25:45;9.20;99.90
45012;DHT22;63444;48.148;11.542;2022-11-18T01:28:12;9.30;99.90
45012;DHT22;63444;48.148;11.542;2022-11-18T01:30:39;9.30;99.90
45012;DHT22;63444;48.148;11.542;2022-11-18T01:33:06;9.30;99.90
45012;DHT22;63444;48.148;11.542;2022-11-18T01:35:37;9.30;99.90
45012;DHT22;63444;48.148;11.542;2022-11-18T01:38:03;9.30;99.90
45012;DHT22;63444;48.148;11.542;2022-11-18T01:40:32;9.30;99.90
45012;DHT22;63444;48.148;11.542;2022-11-18T01:42:58;9.40;99.90
45012;DHT22;63444;48.148;11.542;2022-11-18T01:48:24;9.40;99.90
45012;DHT22;63444;48.148;11.542;2022-11-18T01:51:07;9.40;99.90
45012;DHT22;63444;48.148;11.542;2022-11-18T01:53:37;9.50;99.90
45012;DHT22;63444;48.148;11.542;2022-11-18T01:56:07;9.50;99.90
45012;DHT22;63444;48.148;11.542;2022-11-18T01:58:40;9.50;99.90
45012;DHT22;63444;48.148;11.542;2022-11-18T02:01:06;9.50;99.90
45012;DHT22;63444;48.148;11.542;2022-11-18T02:03:34;9.50;99.90
45012;DHT22;63444;48.148;11.542;2022-11-18T02:06:02;9.50;99.90
45012;DHT22;63444;48.148;11.542;2022-11-18T02:08:31;9.40;99.90
45012;DHT22;63444;48.148;11.542;2022-11-18T02:11:02;9.40;99.90
45012;DHT22;63444;48.148;11.542;2022-11-18T02:13:27;9.40;99.90
45012;DHT22;63444;48.148;11.542;2022-11-18T02:16:13;9.40;99.90
45012;DHT22;63444;48.148;11.542;2022-11-18T02:19:03;9.30;99.90
45012;DHT22;63444;48.148;11.542;2022-11-18T02:27:57;9.40;99.90
45012;DHT22;63444;48.148;11.542;2022-11-18T02:30:36;9.40;99.90
45012;DHT22;63444;48.148;11.542;2022-11-18T02:33:20;9.50;99.90
45012;DHT22;63444;48.148;11.542;2022-11-18T02:35:53;9.40;99.90
45012;DHT22;63444;48.148;11.542;2022-11-18T02:38:28;9.50;99.90
45012;DHT22;63444;48.148;11.542;2022-11-18T02:41:03;9.50;99.90
45012;DHT22;63444;48.148;11.542;2022-11-18T02:43:39;9.60;99.90
45012;DHT22;63444;48.148;11.542;2022-11-18T02:46:10;9.50;99.90
45012;DHT22;63444;48.148;11.542;2022-11-18T02:48:42;9.50;99.90
45012;DHT22;63444;48.148;11.542;2022-11-18T02:51:09;9.60;99.90
45012;DHT22;63444;48.148;11.542;2022-11-18T02:53:37;9.50;99.90
45012;DHT22;63444;48.148;11.542;2022-11-18T02:56:06;9.50;99.90
45012;DHT22;63444;48.148;11.542;2022-11-18T02:58:32;9.50;99.90
45012;DHT22;63444;48.148;11.542;2022-11-18T03:00:59;9.40;99.90
45012;DHT22;63444;48.148;11.542;2022-11-18T03:06:55;9.40;99.90
45012;DHT22;63444;48.148;11.542;2022-11-18T03:09:13;9.30;99.90
45012;DHT22;63444;48.148;11.542;2022-11-18T03:15:06;9.30;99.90
45012;DHT22;63444;48.148;11.542;2022-11-18T03:17:49;9.40;99.90
45012;DHT22;63444;48.148;11.542;2022-11-18T03:20:26;9.40;99.90
45012;DHT22;63444;48.148;11.542;2022-11-18T03:22:56;9.40;99.90
45012;DHT22;63444;48.148;11.542;2022-11-18T03:25:37;9.40;99.90
45012;DHT22;63444;48.148;11.542;2022-11-18T03:28:32;9.30;99.90
45012;DHT22;63444;48.148;11.542;2022-11-18T03:33:32;9.40;99.90
45012;DHT22;63444;48.148;11.542;2022-11-18T03:36:01;9.30;99.90
45012;DHT22;63444;48.148;11.542;2022-11-18T03:38:30;9.30;99.90
45012;DHT22;63444;48.148;11.542;2022-11-18T03:41:00;9.30;99.90
45012;DHT22;63444;48.148;11.542;2022-11-18T03:43:33;9.30;99.90
45012;DHT22;63444;48.148;11.542;2022-11-18T03:46:10;9.30;99.90
45012;DHT22;63444;48.148;11.542;2022-11-18T03:48:42;9.30;99.90
45012;DHT22;63444;48.148;11.542;2022-11-18T03:51:11;9.30;99.90
45012;DHT22;63444;48.148;11.542;2022-11-18T03:53:42;9.20;99.90
45012;DHT22;63444;48.148;11.542;2022-11-18T03:56:14;9.20;99.90
45012;DHT22;63444;48.148;11.542;2022-11-18T03:58:48;9.20;99.90
45012;DHT22;63444;48.148;11.542;2022-11-18T04:01:32;9.20;99.90
45012;DHT22;63444;48.148;11.542;2022-11-18T04:04:00;9.10;99.90
45012;DHT22;63444;48.148;11.542;2022-11-18T04:06:49;9.10;99.90
45012;DHT22;63444;48.148;11.542;2022-11-18T04:09:23;9.00;99.90
45012;DHT22;63444;48.148;11.542;2022-11-18T04:11:54;9.00;99.90
45012;DHT22;63444;48.148;11.542;2022-11-18T04:14:36;9.00;99.90
45012;DHT22;63444;48.148;11.542;2022-11-18T04:17:12;9.00;99.90
45012;DHT22;63444;48.148;11.542;2022-11-18T04:19:38;9.00;99.90
45012;DHT22;63444;48.148;11.542;2022-11-18T04:22:05;9.00;99.90
45012;DHT22;63444;48.148;11.542;2022-11-18T04:24:30;9.00;99.90
45012;DHT22;63444;48.148;11.542;2022-11-18T04:26:56;9.00;99.90
45012;DHT22;63444;48.148;11.542;2022-11-18T04:29:23;9.00;99.90
45012;DHT22;63444;48.148;11.542;2022-11-18T04:31:49;8.90;99.90
45012;DHT22;63444;48.148;11.542;2022-11-18T04:34:14;8.90;99.90
45012;DHT22;63444;48.148;11.542;2022-11-18T04:36:40;8.90;99.90
45012;DHT22;63444;48.148;11.542;2022-11-18T04:39:05;9.00;99.90
45012;DHT22;63444;48.148;11.542;2022-11-18T04:41:31;8.90;99.90
45012;DHT22;63444;48.148;11.542;2022-11-18T04:44:17;8.90;99.90
45012;DHT22;63444;48.148;11.542;2022-11-18T04:46:43;8.90;99.90
45012;DHT22;63444;48.148;11.542;2022-11-18T04:49:11;8.90;99.90
45012;DHT22;63444;48.148;11.542;2022-11-18T04:51:39;8.90;99.90
45012;DHT22;63444;48.148;11.542;2022-11-18T04:54:05;8.80;99.90
45012;DHT22;63444;48.148;11.542;2022-11-18T04:56:31;8.80;99.90
45012;DHT22;63444;48.148;11.542;2022-11-18T04:58:59;8.80;99.90
45012;DHT22;63444;48.148;11.542;2022-11-18T05:01:25;8.70;99.90
45012;DHT22;63444;48.148;11.542;2022-11-18T05:03:51;8.70;99.90
45012;DHT22;63444;48.148;11.542;2022-11-18T05:06:17;8.70;99.90
45012;DHT22;63444;48.148;11.542;2022-11-18T05:08:42;8.70;99.90
45012;DHT22;63444;48.148;11.542;2022-11-18T05:11:08;8.70;99.90
45012;DHT22;63444;48.148;11.542;2022-11-18T05:13:52;8.70;99.90
45012;DHT22;63444;48.148;11.542;2022-11-18T05:16:18;8.70;99.90
45012;DHT22;63444;48.148;11.542;2022-11-18T05:18:43;8.70;99.90
45012;DHT22;63444;48.148;11.542;2022-11-18T05:21:09;8.70;99.90
45012;DHT22;63444;48.148;11.542;2022-11-18T05:23:35;8.70;99.90
45012;DHT22;63444;48.148;11.542;2022-11-18T05:26:08;8.70;99.90
45012;DHT22;63444;48.148;11.542;2022-11-18T05:28:34;8.70;99.90
45012;DHT22;63444;48.148;11.542;2022-11-18T05:31:09;8.80;99.90
45012;DHT22;63444;48.148;11.542;2022-11-18T05:33:35;8.80;99.90
45012;DHT22;63444;48.148;11.542;2022-11-18T05:36:09;8.80;99.90
45012;DHT22;63444;48.148;11.542;2022-11-18T05:38:36;8.70;99.90
45012;DHT22;63444;48.148;11.542;2022-11-18T05:41:03;8.70;99.90
45012;DHT22;63444;48.148;11.542;2022-11-18T05:43:30;8.70;99.90
45012;DHT22;63444;48.148;11.542;2022-11-18T05:45:56;8.80;99.90
45012;DHT22;63444;48.148;11.542;2022-11-18T05:48:23;8.80;99.90
45012;DHT22;63444;48.148;11.542;2022-11-18T05:50:50;8.90;99.90
45012;DHT22;63444;48.148;11.542;2022-11-18T05:53:17;8.90;99.90
45012;DHT22;63444;48.148;11.542;2022-11-18T05:56:00;8.90;99.90
45012;DHT22;63444;48.148;11.542;2022-11-18T05:58:29;8.90;99.90
45012;DHT22;63444;48.148;11.542;2022-11-18T06:00:55;8.80;99.90
45012;DHT22;63444;48.148;11.542;2022-11-18T06:03:25;8.80;99.90
45012;DHT22;63444;48.148;11.542;2022-11-18T06:05:55;8.80;99.90
45012;DHT22;63444;48.148;11.542;2022-11-18T06:08:24;8.80;99.90
45012;DHT22;63444;48.148;11.542;2022-11-18T06:10:52;8.80;99.90
45012;DHT22;63444;48.148;11.542;2022-11-18T06:13:22;8.80;99.90
45012;DHT22;63444;48.148;11.542;2022-11-18T06:15:50;8.90;99.90
45012;DHT22;63444;48.148;11.542;2022-11-18T06:18:22;8.90;99.90
45012;DHT22;63444;48.148;11.542;2022-11-18T06:20:50;8.80;99.90
45012;DHT22;63444;48.148;11.542;2022-11-18T06:23:16;8.80;99.90
45012;DHT22;63444;48.148;11.542;2022-11-18T06:25:42;8.80;99.90
45012;DHT22;63444;48.148;11.542;2022-11-18T06:28:10;8.80;99.90
45012;DHT22;63444;48.148;11.542;2022-11-18T06:30:38;8.80;99.90
45012;DHT22;63444;48.148;11.542;2022-11-18T06:33:03;8.80;99.90
45012;DHT22;63444;48.148;11.542;2022-11-18T06:35:29;8.80;99.90
45012;DHT22;63444;48.148;11.542;2022-11-18T06:37:54;8.80;99.90
45012;DHT22;63444;48.148;11.542;2022-11-18T06:40:21;8.80;99.90
45012;DHT22;63444;48.148;11.542;2022-11-18T06:42:47;8.70;99.90
45012;DHT22;63444;48.148;11.542;2022-11-18T06:45:31;8.80;99.90
45012;DHT22;63444;48.148;11.542;2022-11-18T06:47:57;8.70;99.90
45012;DHT22;63444;48.148;11.542;2022-11-18T06:50:24;8.70;99.90
45012;DHT22;63444;48.148;11.542;2022-11-18T06:52:50;8.70;99.90
45012;DHT22;63444;48.148;11.542;2022-11-18T06:55:15;8.70;99.90
45012;DHT22;63444;48.148;11.542;2022-11-18T06:57:41;8.70;99.90
45012;DHT22;63444;48.148;11.542;2022-11-18T07:00:07;8.70;99.90
45012;DHT22;63444;48.148;11.542;2022-11-18T07:02:35;8.70;99.90
45012;DHT22;63444;48.148;11.542;2022-11-18T07:05:02;8.70;99.90
45012;DHT22;63444;48.148;11.542;2022-11-18T07:07:27;8.70;99.90
45012;DHT22;63444;48.148;11.542;2022-11-18T07:09:53;8.70;99.90
45012;DHT22;63444;48.148;11.542;2022-11-18T07:12:19;8.80;99.90
45012;DHT22;63444;48.148;11.542;2022-11-18T07:14:45;8.80;99.90
45012;DHT22;63444;48.148;11.542;2022-11-18T07:17:11;8.80;99.90
45012;DHT22;63444;48.148;11.542;2022-11-18T07:19:38;8.80;99.90
45012;DHT22;63444;48.148;11.542;2022-11-18T07:22:04;8.70;99.90
45012;DHT22;63444;48.148;11.542;2022-11-18T07:24:31;8.80;99.90
45012;DHT22;63444;48.148;11.542;2022-11-18T07:26:56;8.80;99.90
45012;DHT22;63444;48.148;11.542;2022-11-18T07:29:22;8.90;99.90
45012;DHT22;63444;48.148;11.542;2022-11-18T07:31:47;8.90;99.90
45012;DHT22;63444;48.148;11.542;2022-11-18T07:34:14;8.90;99.90
45012;DHT22;63444;48.148;11.542;2022-11-18T07:36:40;8.90;99.90
45012;DHT22;63444;48.148;11.542;2022-11-18T07:39:06;8.90;99.90
45012;DHT22;63444;48.148;11.542;2022-11-18T07:41:32;8.90;99.90
45012;DHT22;63444;48.148;11.542;2022-11-18T07:44:00;8.90;99.90
45012;DHT22;63444;48.148;11.542;2022-11-18T07:46:32;9.00;99.90
45012;DHT22;63444;48.148;11.542;2022-11-18T07:49:00;8.90;99.90
45012;DHT22;63444;48.148;11.542;2022-11-18T07:51:28;9.00;99.90
45012;DHT22;63444;48.148;11.542;2022-11-18T07:53:54;8.90;99.90
45012;DHT22;63444;48.148;11.542;2022-11-18T07:56:20;9.00;99.90
45012;DHT22;63444;48.148;11.542;2022-11-18T07:58:46;9.00;99.90
45012;DHT22;63444;48.148;11.542;2022-11-18T08:01:16;9.00;99.90
45012;DHT22;63444;48.148;11.542;2022-11-18T08:03:43;9.00;99.90
45012;DHT22;63444;48.148;11.542;2022-11-18T08:06:11;9.00;99.90
45012;DHT22;63444;48.148;11.542;2022-11-18T08:08:37;9.00;99.90
45012;DHT22;63444;48.148;11.542;2022-11-18T08:11:06;9.10;99.90
45012;DHT22;63444;48.148;11.542;2022-11-18T08:13:32;9.10;99.90
45012;DHT22;63444;48.148;11.542;2022-11-18T08:15:58;9.20;99.90
45012;DHT22;63444;48.148;11.542;2022-11-18T08:18:24;9.20;99.90
45012;DHT22;63444;48.148;11.542;2022-11-18T08:20:50;9.30;99.90
45012;DHT22;63444;48.148;11.542;2022-11-18T08:23:16;9.20;99.90
45012;DHT22;63444;48.148;11.542;2022-11-18T08:25:43;9.20;99.90
45012;DHT22;63444;48.148;11.542;2022-11-18T08:28:10;9.30;99.90
45012;DHT22;63444;48.148;11.542;2022-11-18T08:30:36;9.20;99.90
45012;DHT22;63444;48.148;11.542;2022-11-18T08:33:02;9.20;99.90
45012;DHT22;63444;48.148;11.542;2022-11-18T08:35:29;9.20;99.90
45012;DHT22;63444;48.148;11.542;2022-11-18T08:37:55;9.30;99.90
45012;DHT22;63444;48.148;11.542;2022-11-18T08:40:21;9.30;99.90
45012;DHT22;63444;48.148;11.542;2022-11-18T08:42:47;9.30;99.90
45012;DHT22;63444;48.148;11.542;2022-11-18T08:45:13;9.30;99.90
45012;DHT22;63444;48.148;11.542;2022-11-18T08:47:38;9.30;99.90
45012;DHT22;63444;48.148;11.542;2022-11-18T08:50:06;9.30;99.90
45012;DHT22;63444;48.148;11.542;2022-11-18T08:52:33;9.20;99.90
45012;DHT22;63444;48.148;11.542;2022-11-18T08:54:59;9.20;99.90
45012;DHT22;63444;48.148;11.542;2022-11-18T08:57:24;9.20;99.90
45012;DHT22;63444;48.148;11.542;2022-11-18T08:59:50;9.20;99.90
45012;DHT22;63444;48.148;11.542;2022-11-18T09:02:19;9.20;99.90
45012;DHT22;63444;48.148;11.542;2022-11-18T09:04:49;9.20;99.90
45012;DHT22;63444;48.148;11.542;2022-11-18T09:07:19;9.20;99.90
45012;DHT22;63444;48.148;11.542;2022-11-18T09:09:45;9.20;99.90
45012;DHT22;63444;48.148;11.542;2022-11-18T09:12:11;9.20;99.90
45012;DHT22;63444;48.148;11.542;2022-11-18T09:14:41;9.20;99.90
45012;DHT22;63444;48.148;11.542;2022-11-18T09:17:07;9.20;99.90
45012;DHT22;63444;48.148;11.542;2022-11-18T09:19:33;9.20;99.90
45012;DHT22;63444;48.148;11.542;2022-11-18T09:22:02;9.20;99.90
45012;DHT22;63444;48.148;11.542;2022-11-18T09:24:27;9.20;99.90
45012;DHT22;63444;48.148;11.542;2022-11-18T09:26:53;9.20;99.90
45012;DHT22;63444;48.148;11.542;2022-11-18T09:29:18;9.30;99.90
45012;DHT22;63444;48.148;11.542;2022-11-18T09:31:51;9.20;99.90
45012;DHT22;63444;48.148;11.542;2022-11-18T09:34:16;9.20;99.90
45012;DHT22;63444;48.148;11.542;2022-11-18T09:36:42;9.20;99.90
45012;DHT22;63444;48.148;11.542;2022-11-18T09:39:08;9.20;99.90
45012;DHT22;63444;48.148;11.542;2022-11-18T09:41:46;9.20;99.90
45012;DHT22;63444;48.148;11.542;2022-11-18T09:44:38;9.10;99.90
45012;DHT22;63444;48.148;11.542;2022-11-18T09:47:26;9.10;99.90
45012;DHT22;63444;48.148;11.542;2022-11-18T09:49:54;9.00;99.90
45012;DHT22;63444;48.148;11.542;2022-11-18T09:52:27;9.00;99.90
45012;DHT22;63444;48.148;11.542;2022-11-18T09:54:53;9.00;99.90
45012;DHT22;63444;48.148;11.542;2022-11-18T09:57:27;8.90;99.90
45012;DHT22;63444;48.148;11.542;2022-11-18T09:59:55;9.00;99.90
45012;DHT22;63444;48.148;11.542;2022-11-18T10:05:18;8.90;99.90
45012;DHT22;63444;48.148;11.542;2022-11-18T10:19:24;8.80;99.90
45012;DHT22;63444;48.148;11.542;2022-11-18T10:22:13;8.80;99.90
45012;DHT22;63444;48.148;11.542;2022-11-18T10:24:42;8.80;99.90
45012;DHT22;63444;48.148;11.542;2022-11-18T10:27:12;8.80;99.90
45012;DHT22;63444;48.148;11.542;2022-11-18T10:29:39;8.70;99.90
45012;DHT22;63444;48.148;11.542;2022-11-18T10:32:08;8.80;99.90
45012;DHT22;63444;48.148;11.542;2022-11-18T10:34:47;8.80;99.90
45012;DHT22;63444;48.148;11.542;2022-11-18T10:39:53;8.80;99.90
45012;DHT22;63444;48.148;11.542;2022-11-18T10:42:41;8.80;99.90
45012;DHT22;63444;48.148;11.542;2022-11-18T10:45:28;8.80;99.90
45012;DHT22;63444;48.148;11.542;2022-11-18T10:51:19;8.80;99.90
45012;DHT22;63444;48.148;11.542;2022-11-18T10:53:46;8.70;99.90
45012;DHT22;63444;48.148;11.542;2022-11-18T10:56:13;8.70;99.90
45012;DHT22;63444;48.148;11.542;2022-11-18T10:58:47;8.70;99.90
45012;DHT22;63444;48.148;11.542;2022-11-18T11:01:20;8.70;99.90
45012;DHT22;63444;48.148;11.542;2022-11-18T11:04:11;8.70;99.90
45012;DHT22;63444;48.148;11.542;2022-11-18T11:06:37;8.70;99.90
45012;DHT22;63444;48.148;11.542;2022-11-18T11:09:04;8.70;99.90
45012;DHT22;63444;48.148;11.542;2022-11-18T11:11:55;8.60;99.90
45012;DHT22;63444;48.148;11.542;2022-11-18T11:14:52;8.60;99.90
45012;DHT22;63444;48.148;11.542;2022-11-18T11:17:26;8.60;99.90
45012;DHT22;63444;48.148;11.542;2022-11-18T11:20:09;8.70;99.90
45012;DHT22;63444;48.148;11.542;2022-11-18T11:22:39;8.70;99.90
45012;DHT22;63444;48.148;11.542;2022-11-18T11:25:16;8.80;99.90
45012;DHT22;63444;48.148;11.542;2022-11-18T11:28:02;8.80;99.90
45012;DHT22;63444;48.148;11.542;2022-11-18T11:30:36;8.80;99.90
45012;DHT22;63444;48.148;11.542;2022-11-18T11:41:57;8.80;99.90
45012;DHT22;63444;48.148;11.542;2022-11-18T11:50:50;8.70;99.90
45012;DHT22;63444;48.148;11.542;2022-11-18T12:01:56;8.60;99.90
45012;DHT22;63444;48.148;11.542;2022-11-18T12:07:05;8.60;99.90
45012;DHT22;63444;48.148;11.542;2022-11-18T12:18:42;8.60;99.90
45012;DHT22;63444;48.148;11.542;2022-11-18T12:26:59;8.60;99.90
45012;DHT22;63444;48.148;11.542;2022-11-18T12:31:59;8.70;99.90
45012;DHT22;63444;48.148;11.542;2022-11-18T12:34:41;8.60;99.90
45012;DHT22;63444;48.148;11.542;2022-11-18T12:39:57;8.60;99.90
45012;DHT22;63444;48.148;11.542;2022-11-18T12:42:44;8.60;99.90
45012;DHT22;63444;48.148;11.542;2022-11-18T12:48:26;8.60;99.90
45012;DHT22;63444;48.148;11.542;2022-11-18T12:53:47;8.60;99.90
45012;DHT22;63444;48.148;11.542;2022-11-18T12:59:11;8.60;99.90
45012;DHT22;63444;48.148;11.542;2022-11-18T13:01:37;8.60;99.90
45012;DHT22;63444;48.148;11.542;2022-11-18T13:04:11;8.50;99.90
45012;DHT22;63444;48.148;11.542;2022-11-18T13:06:39;8.50;99.90
45012;DHT22;63444;48.148;11.542;2022-11-18T13:09:14;8.50;99.90
45012;DHT22;63444;48.148;11.542;2022-11-18T13:11:54;8.40;99.90
45012;DHT22;63444;48.148;11.542;2022-11-18T13:14:31;8.40;99.90
45012;DHT22;63444;48.148;11.542;2022-11-18T13:20:35;8.40;99.90
45012;DHT22;63444;48.148;11.542;2022-11-18T13:23:01;8.30;99.90
45012;DHT22;63444;48.148;11.542;2022-11-18T13:25:47;8.40;99.90
45012;DHT22;63444;48.148;11.542;2022-11-18T13:30:57;8.30;99.90
45012;DHT22;63444;48.148;11.542;2022-11-18T13:33:24;8.30;99.90
45012;DHT22;63444;48.148;11.542;2022-11-18T13:35:50;8.30;99.90
45012;DHT22;63444;48.148;11.542;2022-11-18T13:38:20;8.30;99.90
45012;DHT22;63444;48.148;11.542;2022-11-18T13:40:47;8.30;99.90
45012;DHT22;63444;48.148;11.542;2022-11-18T13:43:38;8.30;99.90
45012;DHT22;63444;48.148;11.542;2022-11-18T13:46:07;8.30;99.90
45012;DHT22;63444;48.148;11.542;2022-11-18T13:48:38;8.20;99.90
45012;DHT22;63444;48.148;11.542;2022-11-18T13:51:05;8.30;99.90
45012;DHT22;63444;48.148;11.542;2022-11-18T13:53:36;8.30;99.90
45012;DHT22;63444;48.148;11.542;2022-11-18T13:56:22;8.30;99.90
45012;DHT22;63444;48.148;11.542;2022-11-18T14:01:23;8.30;99.90
45012;DHT22;63444;48.148;11.542;2022-11-18T14:04:00;8.40;99.90
45012;DHT22;63444;48.148;11.542;2022-11-18T14:06:31;8.30;99.90
45012;DHT22;63444;48.148;11.542;2022-11-18T14:09:05;8.40;99.90
45012;DHT22;63444;48.148;11.542;2022-11-18T14:11:40;8.40;99.90
45012;DHT22;63444;48.148;11.542;2022-11-18T14:14:11;8.40;99.90
45012;DHT22;63444;48.148;11.542;2022-11-18T14:16:51;8.30;99.90
45012;DHT22;63444;48.148;11.542;2022-11-18T14:19:30;8.40;99.90
45012;DHT22;63444;48.148;11.542;2022-11-18T14:22:15;8.40;99.90
45012;DHT22;63444;48.148;11.542;2022-11-18T14:24:42;8.40;99.90
45012;DHT22;63444;48.148;11.542;2022-11-18T14:27:37;8.40;99.90
45012;DHT22;63444;48.148;11.542;2022-11-18T14:30:26;8.40;99.90
45012;DHT22;63444;48.148;11.542;2022-11-18T14:33:12;8.50;99.90
45012;DHT22;63444;48.148;11.542;2022-11-18T14:35:46;8.40;99.90
45012;DHT22;63444;48.148;11.542;2022-11-18T14:38:14;8.40;99.90
45012;DHT22;63444;48.148;11.542;2022-11-18T14:40:40;8.50;99.90
45012;DHT22;63444;48.148;11.542;2022-11-18T14:43:06;8.40;99.90
45012;DHT22;63444;48.148;11.542;2022-11-18T14:45:32;8.40;99.90
45012;DHT22;63444;48.148;11.542;2022-11-18T14:47:57;8.40;99.90
45012;DHT22;63444;48.148;11.542;2022-11-18T14:50:23;8.40;99.90
45012;DHT22;63444;48.148;11.542;2022-11-18T14:52:48;8.40;99.90
45012;DHT22;63444;48.148;11.542;2022-11-18T14:55:14;8.40;99.90
45012;DHT22;63444;48.148;11.542;2022-11-18T14:57:39;8.30;99.90
45012;DHT22;63444;48.148;11.542;2022-11-18T15:00:05;8.30;99.90
45012;DHT22;63444;48.148;11.542;2022-11-18T15:02:31;8.30;99.90
45012;DHT22;63444;48.148;11.542;2022-11-18T15:04:57;8.30;99.90
45012;DHT22;63444;48.148;11.542;2022-11-18T15:07:22;8.20;99.90
45012;DHT22;63444;48.148;11.542;2022-11-18T15:09:48;8.10;99.90
45012;DHT22;63444;48.148;11.542;2022-11-18T15:12:15;8.10;99.90
45012;DHT22;63444;48.148;11.542;2022-11-18T15:14:41;8.00;99.90
45012;DHT22;63444;48.148;11.542;2022-11-18T15:17:09;8.00;99.90
45012;DHT22;63444;48.148;11.542;2022-11-18T15:19:35;8.00;99.90
45012;DHT22;63444;48.148;11.542;2022-11-18T15:22:01;8.00;99.90
45012;DHT22;63444;48.148;11.542;2022-11-18T15:24:27;8.00;99.90
45012;DHT22;63444;48.148;11.542;2022-11-18T15:26:52;8.00;99.90
45012;DHT22;63444;48.148;11.542;2022-11-18T15:29:20;8.00;99.90
45012;DHT22;63444;48.148;11.542;2022-11-18T15:31:47;8.00;99.90
45012;DHT22;63444;48.148;11.542;2022-11-18T15:34:13;8.00;99.90
45012;DHT22;63444;48.148;11.542;2022-11-18T15:36:39;8.00;99.90
45012;DHT22;63444;48.148;11.542;2022-11-18T15:39:04;8.00;99.90
45012;DHT22;63444;48.148;11.542;2022-11-18T15:41:30;8.00;99.90
45012;DHT22;63444;48.148;11.542;2022-11-18T15:43:58;8.00;99.90
45012;DHT22;63444;48.148;11.542;2022-11-18T15:46:26;8.00;99.90
45012;DHT22;63444;48.148;11.542;2022-11-18T15:48:53;8.00;99.90
45012;DHT22;63444;48.148;11.542;2022-11-18T15:51:20;8.00;99.90
45012;DHT22;63444;48.148;11.542;2022-11-18T15:53:47;8.10;99.90
45012;DHT22;63444;48.148;11.542;2022-11-18T15:58:57;8.00;99.90
45012;DHT22;63444;48.148;11.542;2022-11-18T16:01:26;8.00;99.90
45012;DHT22;63444;48.148;11.542;2022-11-18T16:03:52;8.00;99.90
45012;DHT22;63444;48.148;11.542;2022-11-18T16:06:17;8.00;99.90
45012;DHT22;63444;48.148;11.542;2022-11-18T16:08:43;8.00;99.90
45012;DHT22;63444;48.148;11.542;2022-11-18T16:11:13;8.00;99.90
45012;DHT22;63444;48.148;11.542;2022-11-18T16:14:04;8.00;99.90
45012;DHT22;63444;48.148;11.542;2022-11-18T16:16:31;8.00;99.90
45012;DHT22;63444;48.148;11.542;2022-11-18T16:18:59;8.00;99.90
45012;DHT22;63444;48.148;11.542;2022-11-18T16:21:31;8.00;99.90
45012;DHT22;63444;48.148;11.542;2022-11-18T16:23:58;7.90;99.90
45012;DHT22;63444;48.148;11.542;2022-11-18T16:26:25;7.90;99.90
45012;DHT22;63444;48.148;11.542;2022-11-18T16:28:51;7.90;99.90
45012;DHT22;63444;48.148;11.542;2022-11-18T16:31:17;7.90;99.90
45012;DHT22;63444;48.148;11.542;2022-11-18T16:34:28;7.90;99.90
45012;DHT22;63444;48.148;11.542;2022-11-18T16:36:56;7.90;99.90
45012;DHT22;63444;48.148;11.542;2022-11-18T16:39:23;7.90;99.90
45012;DHT22;63444;48.148;11.542;2022-11-18T16:41:51;7.90;99.90
45012;DHT22;63444;48.148;11.542;2022-11-18T16:44:17;8.00;99.90
45012;DHT22;63444;48.148;11.542;2022-11-18T16:46:54;8.00;99.90
45012;DHT22;63444;48.148;11.542;2022-11-18T16:49:25;8.00;99.90
45012;DHT22;63444;48.148;11.542;2022-11-18T16:51:52;8.00;99.90
45012;DHT22;63444;48.148;11.542;2022-11-18T16:54:20;8.00;99.90
45012;DHT22;63444;48.148;11.542;2022-11-18T16:56:47;8.00;99.90
45012;DHT22;63444;48.148;11.542;2022-11-18T16:59:15;7.90;99.90
45012;DHT22;63444;48.148;11.542;2022-11-18T17:01:42;8.00;99.90
45012;DHT22;63444;48.148;11.542;2022-11-18T17:04:09;8.00;99.90
45012;DHT22;63444;48.148;11.542;2022-11-18T17:06:39;8.00;99.90
45012;DHT22;63444;48.148;11.542;2022-11-18T17:09:05;8.00;99.90
45012;DHT22;63444;48.148;11.542;2022-11-18T17:11:30;8.00;99.90
45012;DHT22;63444;48.148;11.542;2022-11-18T17:13:56;8.00;99.90
45012;DHT22;63444;48.148;11.542;2022-11-18T17:16:22;8.00;99.90
45012;DHT22;63444;48.148;11.542;2022-11-18T17:18:53;8.00;99.90
45012;DHT22;63444;48.148;11.542;2022-11-18T17:21:18;8.00;99.90
45012;DHT22;63444;48.148;11.542;2022-11-18T17:23:46;8.00;99.90
45012;DHT22;63444;48.148;11.542;2022-11-18T17:26:16;8.00;99.90
45012;DHT22;63444;48.148;11.542;2022-11-18T17:28:43;8.00;99.90
45012;DHT22;63444;48.148;11.542;2022-11-18T17:31:14;8.00;99.90
45012;DHT22;63444;48.148;11.542;2022-11-18T17:33:42;8.00;99.90